This is the latest recevied weather packets stored in our database for station/object OM3WYM-13. If no packets are shown the sender has not sent any weather packets the latest 10 day(s).
| Time | Temp. | Humidity | Pressure | Rain* | Wind** | Luminosity | Snow |
|---|---|---|---|---|---|---|---|
| 1777477808 | 12.78° C | 24% | 1023.3 hPa | - | - | - | - |
| 1777477208 | 11.11° C | 26% | 1023.6 hPa | - | - | - | - |
| 1777476608 | 12.22° C | 25% | 1023.5 hPa | - | - | - | - |
| 1777476008 | 11.67° C | 25% | 1023.5 hPa | - | - | - | - |
| 1777475408 | 13.33° C | 24% | 1023.2 hPa | - | - | - | - |
| 1777474808 | 13.89° C | 23% | 1023.1 hPa | - | - | - | - |
| 1777474208 | 13.33° C | 24% | 1023.2 hPa | - | - | - | - |
| 1777473608 | 13.89° C | 24% | 1023.1 hPa | - | - | - | - |
| 1777473008 | 12.22° C | 25% | 1023.4 hPa | - | - | - | - |
| 1777472408 | 13.33° C | 24% | 1023 hPa | - | - | - | - |
| 1777471808 | 11.67° C | 25% | 1023.2 hPa | - | - | - | - |
| 1777471208 | 12.22° C | 25% | 1023.3 hPa | - | - | - | - |
| 1777470608 | 11.11° C | 27% | 1023.4 hPa | - | - | - | - |
| 1777470008 | 12.22° C | 27% | 1023.2 hPa | - | - | - | - |
| 1777469408 | 11.11° C | 27% | 1023.3 hPa | - | - | - | - |
| 1777468808 | 10.56° C | 28% | 1023.3 hPa | - | - | - | - |
| 1777468208 | 11.11° C | 28% | 1023.2 hPa | - | - | - | - |
| 1777467608 | 11.67° C | 28% | 1023.2 hPa | - | - | - | - |
| 1777467008 | 11.11° C | 29% | 1023.4 hPa | - | - | - | - |
| 1777466408 | 11.67° C | 27% | 1023.3 hPa | - | - | - | - |
| 1777465808 | 10.56° C | 30% | 1023.5 hPa | - | - | - | - |
| 1777465208 | 10° C | 31% | 1023.5 hPa | - | - | - | - |
| 1777464608 | 10.56° C | 30% | 1023.4 hPa | - | - | - | - |
| 1777464008 | 10.56° C | 29% | 1023.5 hPa | - | - | - | - |
| 1777463408 | 11.11° C | 30% | 1023.4 hPa | - | - | - | - |
* Rain since midnight (hover to see other rain measurements)
** Current wind speed in m/s (hover to see current wind gust speed)